sensor_id;sensor_type;location;lat;lon;timestamp;P1;durP1;ratioP1;P2;durP2;ratioP2
70942;SDS011;59154;51.970;5.650;2023-02-21T00:00:03;22.1;;;15.2;;
70942;SDS011;59154;51.970;5.650;2023-02-21T00:05:02;18.8;;;14.0;;
70942;SDS011;59154;51.970;5.650;2023-02-21T00:10:02;21.1;;;14.7;;
70942;SDS011;59154;51.970;5.650;2023-02-21T00:15:03;18.7;;;13.8;;
70942;SDS011;59154;51.970;5.650;2023-02-21T00:20:03;20.8;;;14.9;;
70942;SDS011;59154;51.970;5.650;2023-02-21T00:25:02;24.0;;;16.1;;
70942;SDS011;59154;51.970;5.650;2023-02-21T00:30:03;22.2;;;16.4;;
70942;SDS011;59154;51.970;5.650;2023-02-21T00:35:02;22.6;;;16.3;;
70942;SDS011;59154;51.970;5.650;2023-02-21T00:40:03;22.8;;;16.7;;
70942;SDS011;59154;51.970;5.650;2023-02-21T00:45:03;23.5;;;18.1;;
70942;SDS011;59154;51.970;5.650;2023-02-21T00:50:03;23.0;;;16.1;;
70942;SDS011;59154;51.970;5.650;2023-02-21T00:55:02;22.1;;;16.7;;
70942;SDS011;59154;51.970;5.650;2023-02-21T01:00:04;25.5;;;17.4;;
70942;SDS011;59154;51.970;5.650;2023-02-21T01:05:02;26.7;;;17.4;;
70942;SDS011;59154;51.970;5.650;2023-02-21T01:10:02;23.8;;;16.7;;
70942;SDS011;59154;51.970;5.650;2023-02-21T01:15:03;24.1;;;17.5;;
70942;SDS011;59154;51.970;5.650;2023-02-21T01:20:03;29.0;;;19.3;;
70942;SDS011;59154;51.970;5.650;2023-02-21T01:25:02;25.1;;;18.7;;
70942;SDS011;59154;51.970;5.650;2023-02-21T01:30:03;25.0;;;17.7;;
70942;SDS011;59154;51.970;5.650;2023-02-21T01:35:02;24.9;;;18.0;;
70942;SDS011;59154;51.970;5.650;2023-02-21T01:40:03;23.5;;;17.0;;
70942;SDS011;59154;51.970;5.650;2023-02-21T01:45:37;27.8;;;18.7;;
70942;SDS011;59154;51.970;5.650;2023-02-21T01:50:04;27.6;;;18.5;;
70942;SDS011;59154;51.970;5.650;2023-02-21T01:55:02;27.3;;;18.2;;
70942;SDS011;59154;51.970;5.650;2023-02-21T02:00:04;30.8;;;19.6;;
70942;SDS011;59154;51.970;5.650;2023-02-21T02:05:02;26.7;;;18.9;;
70942;SDS011;59154;51.970;5.650;2023-02-21T02:10:03;27.4;;;17.4;;
70942;SDS011;59154;51.970;5.650;2023-02-21T02:15:07;26.6;;;17.8;;
70942;SDS011;59154;51.970;5.650;2023-02-21T02:20:10;28.9;;;19.3;;
70942;SDS011;59154;51.970;5.650;2023-02-21T02:25:07;26.5;;;18.2;;
70942;SDS011;59154;51.970;5.650;2023-02-21T02:31:14;25.3;;;17.3;;
70942;SDS011;59154;51.970;5.650;2023-02-21T02:35:03;23.1;;;16.5;;
70942;SDS011;59154;51.970;5.650;2023-02-21T02:40:05;28.5;;;18.5;;
70942;SDS011;59154;51.970;5.650;2023-02-21T02:45:05;29.2;;;19.5;;
70942;SDS011;59154;51.970;5.650;2023-02-21T02:50:03;30.0;;;18.9;;
70942;SDS011;59154;51.970;5.650;2023-02-21T02:55:03;26.9;;;19.0;;
70942;SDS011;59154;51.970;5.650;2023-02-21T03:00:03;24.3;;;15.5;;
70942;SDS011;59154;51.970;5.650;2023-02-21T03:05:11;23.2;;;14.1;;
70942;SDS011;59154;51.970;5.650;2023-02-21T03:10:04;21.9;;;13.7;;
70942;SDS011;59154;51.970;5.650;2023-02-21T03:15:03;20.6;;;14.0;;
70942;SDS011;59154;51.970;5.650;2023-02-21T03:20:03;23.3;;;13.9;;
70942;SDS011;59154;51.970;5.650;2023-02-21T03:25:02;21.8;;;13.4;;
70942;SDS011;59154;51.970;5.650;2023-02-21T03:30:03;22.6;;;13.8;;
70942;SDS011;59154;51.970;5.650;2023-02-21T03:35:03;20.7;;;13.0;;
70942;SDS011;59154;51.970;5.650;2023-02-21T03:40:03;23.3;;;15.7;;
70942;SDS011;59154;51.970;5.650;2023-02-21T03:45:03;21.9;;;16.0;;
70942;SDS011;59154;51.970;5.650;2023-02-21T03:50:02;25.1;;;16.2;;
70942;SDS011;59154;51.970;5.650;2023-02-21T03:55:03;22.2;;;15.7;;
70942;SDS011;59154;51.970;5.650;2023-02-21T04:00:03;25.4;;;16.0;;
70942;SDS011;59154;51.970;5.650;2023-02-21T04:05:02;26.4;;;17.5;;
70942;SDS011;59154;51.970;5.650;2023-02-21T04:10:03;24.6;;;16.6;;
70942;SDS011;59154;51.970;5.650;2023-02-21T04:15:02;27.2;;;17.4;;
70942;SDS011;59154;51.970;5.650;2023-02-21T04:20:03;27.0;;;17.9;;
70942;SDS011;59154;51.970;5.650;2023-02-21T04:25:02;27.0;;;16.8;;
70942;SDS011;59154;51.970;5.650;2023-02-21T04:30:02;25.8;;;16.4;;
70942;SDS011;59154;51.970;5.650;2023-02-21T04:35:02;27.1;;;17.3;;
70942;SDS011;59154;51.970;5.650;2023-02-21T04:40:03;24.2;;;16.5;;
70942;SDS011;59154;51.970;5.650;2023-02-21T04:45:02;24.2;;;16.6;;
70942;SDS011;59154;51.970;5.650;2023-02-21T04:50:02;27.8;;;17.9;;
70942;SDS011;59154;51.970;5.650;2023-02-21T04:55:02;27.3;;;17.8;;
70942;SDS011;59154;51.970;5.650;2023-02-21T05:00:03;24.7;;;17.0;;
70942;SDS011;59154;51.970;5.650;2023-02-21T05:05:02;25.3;;;16.7;;
70942;SDS011;59154;51.970;5.650;2023-02-21T05:10:03;28.5;;;17.8;;
70942;SDS011;59154;51.970;5.650;2023-02-21T05:15:02;27.9;;;18.0;;
70942;SDS011;59154;51.970;5.650;2023-02-21T05:20:03;28.2;;;18.0;;
70942;SDS011;59154;51.970;5.650;2023-02-21T05:25:02;33.0;;;18.6;;
70942;SDS011;59154;51.970;5.650;2023-02-21T05:30:03;29.9;;;18.0;;
70942;SDS011;59154;51.970;5.650;2023-02-21T05:35:02;29.7;;;19.6;;
70942;SDS011;59154;51.970;5.650;2023-02-21T05:40:03;30.8;;;18.7;;
70942;SDS011;59154;51.970;5.650;2023-02-21T05:45:03;28.0;;;18.0;;
70942;SDS011;59154;51.970;5.650;2023-02-21T05:50:03;30.4;;;19.0;;
70942;SDS011;59154;51.970;5.650;2023-02-21T05:55:03;30.4;;;17.7;;
70942;SDS011;59154;51.970;5.650;2023-02-21T06:00:03;30.8;;;19.1;;
70942;SDS011;59154;51.970;5.650;2023-02-21T06:05:02;31.7;;;19.6;;
70942;SDS011;59154;51.970;5.650;2023-02-21T06:10:03;35.9;;;20.1;;
70942;SDS011;59154;51.970;5.650;2023-02-21T06:15:02;36.0;;;20.1;;
70942;SDS011;59154;51.970;5.650;2023-02-21T06:20:03;29.6;;;18.6;;
70942;SDS011;59154;51.970;5.650;2023-02-21T06:25:02;33.4;;;19.7;;
70942;SDS011;59154;51.970;5.650;2023-02-21T06:30:03;33.2;;;19.4;;
70942;SDS011;59154;51.970;5.650;2023-02-21T06:35:03;35.3;;;20.5;;
70942;SDS011;59154;51.970;5.650;2023-02-21T06:40:03;30.6;;;19.7;;
70942;SDS011;59154;51.970;5.650;2023-02-21T06:45:02;33.2;;;20.1;;
70942;SDS011;59154;51.970;5.650;2023-02-21T06:50:03;28.9;;;19.1;;
70942;SDS011;59154;51.970;5.650;2023-02-21T06:55:02;32.1;;;20.3;;
70942;SDS011;59154;51.970;5.650;2023-02-21T07:00:03;35.7;;;20.8;;
70942;SDS011;59154;51.970;5.650;2023-02-21T07:05:02;35.7;;;21.2;;
70942;SDS011;59154;51.970;5.650;2023-02-21T07:10:03;42.8;;;22.2;;
70942;SDS011;59154;51.970;5.650;2023-02-21T07:15:02;41.0;;;22.6;;
70942;SDS011;59154;51.970;5.650;2023-02-21T07:20:03;41.4;;;23.4;;
70942;SDS011;59154;51.970;5.650;2023-02-21T07:25:03;38.6;;;22.6;;
70942;SDS011;59154;51.970;5.650;2023-02-21T07:30:03;35.0;;;20.7;;
70942;SDS011;59154;51.970;5.650;2023-02-21T07:35:02;38.9;;;21.0;;
70942;SDS011;59154;51.970;5.650;2023-02-21T07:40:04;37.9;;;21.8;;
70942;SDS011;59154;51.970;5.650;2023-02-21T07:45:02;40.0;;;23.3;;
70942;SDS011;59154;51.970;5.650;2023-02-21T07:50:03;39.2;;;22.3;;
70942;SDS011;59154;51.970;5.650;2023-02-21T07:55:02;41.0;;;21.8;;
70942;SDS011;59154;51.970;5.650;2023-02-21T08:00:03;37.5;;;22.3;;
70942;SDS011;59154;51.970;5.650;2023-02-21T08:05:03;37.7;;;21.9;;
70942;SDS011;59154;51.970;5.650;2023-02-21T08:10:03;40.6;;;20.6;;
70942;SDS011;59154;51.970;5.650;2023-02-21T08:15:02;41.9;;;22.0;;
70942;SDS011;59154;51.970;5.650;2023-02-21T08:20:03;36.0;;;21.0;;
70942;SDS011;59154;51.970;5.650;2023-02-21T08:25:02;33.3;;;19.4;;
70942;SDS011;59154;51.970;5.650;2023-02-21T08:30:02;32.4;;;19.5;;
70942;SDS011;59154;51.970;5.650;2023-02-21T08:35:02;33.3;;;19.5;;
70942;SDS011;59154;51.970;5.650;2023-02-21T08:40:03;31.9;;;17.9;;
70942;SDS011;59154;51.970;5.650;2023-02-21T08:45:02;29.9;;;18.3;;
70942;SDS011;59154;51.970;5.650;2023-02-21T08:50:02;30.0;;;18.3;;
70942;SDS011;59154;51.970;5.650;2023-02-21T08:55:02;26.6;;;16.6;;
70942;SDS011;59154;51.970;5.650;2023-02-21T09:00:03;27.9;;;16.9;;
70942;SDS011;59154;51.970;5.650;2023-02-21T09:05:02;27.7;;;17.0;;
70942;SDS011;59154;51.970;5.650;2023-02-21T09:10:03;26.2;;;16.1;;
70942;SDS011;59154;51.970;5.650;2023-02-21T09:15:02;25.3;;;15.8;;
70942;SDS011;59154;51.970;5.650;2023-02-21T09:20:04;21.1;;;14.9;;
70942;SDS011;59154;51.970;5.650;2023-02-21T09:25:02;23.6;;;14.7;;
70942;SDS011;59154;51.970;5.650;2023-02-21T09:30:04;24.8;;;15.0;;
70942;SDS011;59154;51.970;5.650;2023-02-21T09:35:03;23.4;;;14.3;;
70942;SDS011;59154;51.970;5.650;2023-02-21T09:40:03;23.7;;;15.6;;
70942;SDS011;59154;51.970;5.650;2023-02-21T09:45:02;27.3;;;17.6;;
70942;SDS011;59154;51.970;5.650;2023-02-21T09:50:04;27.3;;;15.5;;
70942;SDS011;59154;51.970;5.650;2023-02-21T09:55:04;23.2;;;15.2;;
70942;SDS011;59154;51.970;5.650;2023-02-21T10:00:05;25.3;;;16.1;;
70942;SDS011;59154;51.970;5.650;2023-02-21T10:05:05;23.9;;;16.6;;
70942;SDS011;59154;51.970;5.650;2023-02-21T10:10:04;25.9;;;16.3;;
70942;SDS011;59154;51.970;5.650;2023-02-21T10:15:12;25.4;;;17.1;;
70942;SDS011;59154;51.970;5.650;2023-02-21T10:20:04;28.8;;;16.6;;
70942;SDS011;59154;51.970;5.650;2023-02-21T10:25:05;25.2;;;16.2;;
70942;SDS011;59154;51.970;5.650;2023-02-21T10:30:03;24.2;;;16.1;;
70942;SDS011;59154;51.970;5.650;2023-02-21T10:35:02;23.6;;;16.2;;
70942;SDS011;59154;51.970;5.650;2023-02-21T10:40:03;29.0;;;16.4;;
70942;SDS011;59154;51.970;5.650;2023-02-21T10:45:02;27.8;;;15.9;;
70942;SDS011;59154;51.970;5.650;2023-02-21T10:50:03;25.1;;;15.6;;
70942;SDS011;59154;51.970;5.650;2023-02-21T10:55:03;27.3;;;15.9;;
70942;SDS011;59154;51.970;5.650;2023-02-21T11:00:03;24.2;;;16.1;;
70942;SDS011;59154;51.970;5.650;2023-02-21T11:05:07;30.4;;;16.9;;
70942;SDS011;59154;51.970;5.650;2023-02-21T11:10:06;22.4;;;14.9;;
70942;SDS011;59154;51.970;5.650;2023-02-21T11:15:05;23.2;;;15.1;;
70942;SDS011;59154;51.970;5.650;2023-02-21T11:20:04;24.1;;;13.5;;
70942;SDS011;59154;51.970;5.650;2023-02-21T11:25:03;18.0;;;13.1;;
70942;SDS011;59154;51.970;5.650;2023-02-21T11:30:13;17.5;;;12.0;;
70942;SDS011;59154;51.970;5.650;2023-02-21T11:35:04;15.7;;;9.7;;
70942;SDS011;59154;51.970;5.650;2023-02-21T11:40:04;14.6;;;9.9;;
70942;SDS011;59154;51.970;5.650;2023-02-21T11:45:05;14.8;;;10.0;;
70942;SDS011;59154;51.970;5.650;2023-02-21T11:50:05;13.8;;;9.3;;
70942;SDS011;59154;51.970;5.650;2023-02-21T11:55:03;13.7;;;9.3;;
70942;SDS011;59154;51.970;5.650;2023-02-21T12:00:07;14.2;;;10.2;;
70942;SDS011;59154;51.970;5.650;2023-02-21T12:05:05;13.6;;;8.7;;
70942;SDS011;59154;51.970;5.650;2023-02-21T12:10:05;12.8;;;8.9;;
70942;SDS011;59154;51.970;5.650;2023-02-21T12:15:05;14.4;;;9.6;;
70942;SDS011;59154;51.970;5.650;2023-02-21T12:20:06;11.8;;;7.1;;
70942;SDS011;59154;51.970;5.650;2023-02-21T12:25:05;9.5;;;6.4;;
70942;SDS011;59154;51.970;5.650;2023-02-21T12:30:08;12.0;;;7.2;;
70942;SDS011;59154;51.970;5.650;2023-02-21T12:35:17;9.6;;;6.1;;
70942;SDS011;59154;51.970;5.650;2023-02-21T12:40:08;10.6;;;6.8;;
70942;SDS011;59154;51.970;5.650;2023-02-21T12:45:06;10.1;;;6.5;;
70942;SDS011;59154;51.970;5.650;2023-02-21T12:50:05;9.2;;;6.7;;
70942;SDS011;59154;51.970;5.650;2023-02-21T12:55:03;11.1;;;6.4;;
70942;SDS011;59154;51.970;5.650;2023-02-21T13:00:05;8.9;;;6.5;;
70942;SDS011;59154;51.970;5.650;2023-02-21T13:05:04;11.5;;;7.2;;
70942;SDS011;59154;51.970;5.650;2023-02-21T13:10:04;12.2;;;7.0;;
70942;SDS011;59154;51.970;5.650;2023-02-21T13:15:03;9.9;;;6.6;;
70942;SDS011;59154;51.970;5.650;2023-02-21T13:20:04;9.2;;;6.4;;
70942;SDS011;59154;51.970;5.650;2023-02-21T13:25:03;11.3;;;6.5;;
70942;SDS011;59154;51.970;5.650;2023-02-21T13:30:05;10.3;;;6.3;;
70942;SDS011;59154;51.970;5.650;2023-02-21T13:35:04;10.5;;;7.0;;
70942;SDS011;59154;51.970;5.650;2023-02-21T13:40:04;11.6;;;7.3;;
70942;SDS011;59154;51.970;5.650;2023-02-21T13:45:09;11.6;;;6.5;;
70942;SDS011;59154;51.970;5.650;2023-02-21T13:50:13;9.6;;;6.5;;
70942;SDS011;59154;51.970;5.650;2023-02-21T13:55:20;9.3;;;6.6;;
70942;SDS011;59154;51.970;5.650;2023-02-21T14:00:24;10.2;;;7.0;;
70942;SDS011;59154;51.970;5.650;2023-02-21T14:05:04;11.6;;;7.2;;
70942;SDS011;59154;51.970;5.650;2023-02-21T14:10:02;13.5;;;7.3;;
70942;SDS011;59154;51.970;5.650;2023-02-21T14:15:03;12.0;;;7.0;;
70942;SDS011;59154;51.970;5.650;2023-02-21T14:20:03;12.1;;;6.6;;
70942;SDS011;59154;51.970;5.650;2023-02-21T14:25:04;13.6;;;7.7;;
70942;SDS011;59154;51.970;5.650;2023-02-21T14:30:14;11.1;;;7.4;;
70942;SDS011;59154;51.970;5.650;2023-02-21T14:35:12;10.9;;;7.8;;
70942;SDS011;59154;51.970;5.650;2023-02-21T14:40:11;14.5;;;8.4;;
70942;SDS011;59154;51.970;5.650;2023-02-21T14:45:12;11.3;;;7.9;;
70942;SDS011;59154;51.970;5.650;2023-02-21T14:50:08;13.8;;;8.5;;
70942;SDS011;59154;51.970;5.650;2023-02-21T14:55:17;11.2;;;7.5;;
70942;SDS011;59154;51.970;5.650;2023-02-21T15:00:07;10.5;;;7.7;;
70942;SDS011;59154;51.970;5.650;2023-02-21T15:05:04;13.2;;;7.5;;
70942;SDS011;59154;51.970;5.650;2023-02-21T15:10:04;11.7;;;7.7;;
70942;SDS011;59154;51.970;5.650;2023-02-21T15:15:02;10.3;;;7.3;;
70942;SDS011;59154;51.970;5.650;2023-02-21T15:20:03;12.0;;;7.2;;
70942;SDS011;59154;51.970;5.650;2023-02-21T15:25:18;10.0;;;7.1;;
70942;SDS011;59154;51.970;5.650;2023-02-21T15:30:04;11.2;;;6.8;;
70942;SDS011;59154;51.970;5.650;2023-02-21T15:35:02;12.4;;;7.0;;
70942;SDS011;59154;51.970;5.650;2023-02-21T15:40:04;12.6;;;6.9;;
70942;SDS011;59154;51.970;5.650;2023-02-21T15:45:04;11.7;;;7.2;;
70942;SDS011;59154;51.970;5.650;2023-02-21T15:50:06;9.7;;;6.2;;
70942;SDS011;59154;51.970;5.650;2023-02-21T15:55:34;10.2;;;7.3;;
70942;SDS011;59154;51.970;5.650;2023-02-21T16:00:16;10.1;;;6.8;;
70942;SDS011;59154;51.970;5.650;2023-02-21T16:05:02;9.7;;;6.7;;
70942;SDS011;59154;51.970;5.650;2023-02-21T16:10:03;9.8;;;7.0;;
70942;SDS011;59154;51.970;5.650;2023-02-21T16:15:04;11.1;;;7.2;;
70942;SDS011;59154;51.970;5.650;2023-02-21T16:20:11;13.4;;;8.4;;
70942;SDS011;59154;51.970;5.650;2023-02-21T16:25:20;9.9;;;6.6;;
70942;SDS011;59154;51.970;5.650;2023-02-21T16:30:02;9.8;;;5.9;;
70942;SDS011;59154;51.970;5.650;2023-02-21T16:35:02;10.2;;;6.4;;
70942;SDS011;59154;51.970;5.650;2023-02-21T16:40:04;8.4;;;5.8;;
70942;SDS011;59154;51.970;5.650;2023-02-21T16:45:02;10.3;;;6.9;;
70942;SDS011;59154;51.970;5.650;2023-02-21T16:50:03;11.8;;;6.7;;
70942;SDS011;59154;51.970;5.650;2023-02-21T16:55:02;12.1;;;8.1;;
70942;SDS011;59154;51.970;5.650;2023-02-21T17:00:03;12.3;;;7.1;;
70942;SDS011;59154;51.970;5.650;2023-02-21T17:05:02;11.0;;;7.6;;
70942;SDS011;59154;51.970;5.650;2023-02-21T17:10:02;12.0;;;7.5;;
70942;SDS011;59154;51.970;5.650;2023-02-21T17:15:03;9.2;;;6.7;;
70942;SDS011;59154;51.970;5.650;2023-02-21T17:20:03;9.5;;;6.9;;
70942;SDS011;59154;51.970;5.650;2023-02-21T17:25:02;12.4;;;8.3;;
70942;SDS011;59154;51.970;5.650;2023-02-21T17:30:03;9.5;;;6.9;;
70942;SDS011;59154;51.970;5.650;2023-02-21T17:35:03;10.9;;;7.2;;
70942;SDS011;59154;51.970;5.650;2023-02-21T17:40:03;12.3;;;7.2;;
70942;SDS011;59154;51.970;5.650;2023-02-21T17:45:02;10.6;;;6.7;;
70942;SDS011;59154;51.970;5.650;2023-02-21T17:50:03;11.0;;;7.9;;
70942;SDS011;59154;51.970;5.650;2023-02-21T17:55:02;10.7;;;7.9;;
70942;SDS011;59154;51.970;5.650;2023-02-21T18:00:03;13.0;;;8.6;;
70942;SDS011;59154;51.970;5.650;2023-02-21T18:05:02;15.3;;;10.3;;
70942;SDS011;59154;51.970;5.650;2023-02-21T18:10:03;14.2;;;8.9;;
70942;SDS011;59154;51.970;5.650;2023-02-21T18:15:02;14.5;;;9.4;;
70942;SDS011;59154;51.970;5.650;2023-02-21T18:20:03;17.5;;;9.7;;
70942;SDS011;59154;51.970;5.650;2023-02-21T18:25:03;16.7;;;9.9;;
70942;SDS011;59154;51.970;5.650;2023-02-21T18:30:02;14.9;;;10.3;;
70942;SDS011;59154;51.970;5.650;2023-02-21T18:35:02;17.1;;;10.3;;
70942;SDS011;59154;51.970;5.650;2023-02-21T18:40:03;15.3;;;9.9;;
70942;SDS011;59154;51.970;5.650;2023-02-21T18:45:02;18.6;;;10.9;;
70942;SDS011;59154;51.970;5.650;2023-02-21T18:50:02;16.9;;;10.8;;
70942;SDS011;59154;51.970;5.650;2023-02-21T18:55:02;16.9;;;11.7;;
70942;SDS011;59154;51.970;5.650;2023-02-21T19:00:03;18.8;;;10.5;;
70942;SDS011;59154;51.970;5.650;2023-02-21T19:05:02;14.6;;;10.0;;
70942;SDS011;59154;51.970;5.650;2023-02-21T19:10:03;16.0;;;11.6;;
70942;SDS011;59154;51.970;5.650;2023-02-21T19:15:02;19.3;;;11.2;;
70942;SDS011;59154;51.970;5.650;2023-02-21T19:20:03;19.3;;;10.8;;
70942;SDS011;59154;51.970;5.650;2023-02-21T19:25:02;16.1;;;10.5;;
70942;SDS011;59154;51.970;5.650;2023-02-21T19:30:02;17.3;;;11.5;;
70942;SDS011;59154;51.970;5.650;2023-02-21T19:35:02;17.8;;;11.5;;
70942;SDS011;59154;51.970;5.650;2023-02-21T19:40:03;18.4;;;11.4;;
70942;SDS011;59154;51.970;5.650;2023-02-21T19:45:02;20.7;;;11.9;;
70942;SDS011;59154;51.970;5.650;2023-02-21T19:50:03;18.2;;;11.1;;
70942;SDS011;59154;51.970;5.650;2023-02-21T19:55:02;23.1;;;12.8;;
70942;SDS011;59154;51.970;5.650;2023-02-21T20:00:03;20.8;;;12.7;;
70942;SDS011;59154;51.970;5.650;2023-02-21T20:05:03;18.5;;;12.4;;
70942;SDS011;59154;51.970;5.650;2023-02-21T20:10:02;19.4;;;12.5;;
70942;SDS011;59154;51.970;5.650;2023-02-21T20:15:03;18.5;;;12.1;;
70942;SDS011;59154;51.970;5.650;2023-02-21T20:20:04;20.7;;;12.7;;
70942;SDS011;59154;51.970;5.650;2023-02-21T20:25:02;20.9;;;12.9;;
70942;SDS011;59154;51.970;5.650;2023-02-21T20:30:03;17.3;;;12.0;;
70942;SDS011;59154;51.970;5.650;2023-02-21T20:35:02;20.9;;;12.5;;
70942;SDS011;59154;51.970;5.650;2023-02-21T20:40:03;18.6;;;13.3;;
70942;SDS011;59154;51.970;5.650;2023-02-21T20:45:02;21.3;;;14.6;;
70942;SDS011;59154;51.970;5.650;2023-02-21T20:50:03;21.0;;;14.7;;
70942;SDS011;59154;51.970;5.650;2023-02-21T20:55:02;22.6;;;14.4;;
70942;SDS011;59154;51.970;5.650;2023-02-21T21:00:03;23.2;;;14.9;;
70942;SDS011;59154;51.970;5.650;2023-02-21T21:05:02;23.8;;;15.6;;
70942;SDS011;59154;51.970;5.650;2023-02-21T21:10:03;22.9;;;14.4;;
70942;SDS011;59154;51.970;5.650;2023-02-21T21:15:02;23.7;;;14.9;;
70942;SDS011;59154;51.970;5.650;2023-02-21T21:20:04;20.5;;;13.5;;
70942;SDS011;59154;51.970;5.650;2023-02-21T21:25:02;21.6;;;14.3;;
70942;SDS011;59154;51.970;5.650;2023-02-21T21:30:03;19.4;;;14.0;;
70942;SDS011;59154;51.970;5.650;2023-02-21T21:35:02;19.6;;;13.4;;
70942;SDS011;59154;51.970;5.650;2023-02-21T21:40:03;17.1;;;12.2;;
70942;SDS011;59154;51.970;5.650;2023-02-21T21:45:02;19.7;;;12.7;;
70942;SDS011;59154;51.970;5.650;2023-02-21T21:50:03;18.2;;;13.6;;
70942;SDS011;59154;51.970;5.650;2023-02-21T21:55:03;16.0;;;11.6;;
70942;SDS011;59154;51.970;5.650;2023-02-21T22:00:03;17.5;;;12.3;;
70942;SDS011;59154;51.970;5.650;2023-02-21T22:05:02;14.7;;;12.1;;
70942;SDS011;59154;51.970;5.650;2023-02-21T22:10:03;16.0;;;11.9;;
70942;SDS011;59154;51.970;5.650;2023-02-21T22:15:02;16.5;;;9.7;;
70942;SDS011;59154;51.970;5.650;2023-02-21T22:20:04;16.7;;;10.8;;
70942;SDS011;59154;51.970;5.650;2023-02-21T22:25:02;15.5;;;11.1;;
70942;SDS011;59154;51.970;5.650;2023-02-21T22:30:03;15.4;;;10.6;;
70942;SDS011;59154;51.970;5.650;2023-02-21T22:35:02;13.0;;;10.2;;
70942;SDS011;59154;51.970;5.650;2023-02-21T22:40:03;13.0;;;9.7;;
70942;SDS011;59154;51.970;5.650;2023-02-21T22:45:03;13.7;;;8.9;;
70942;SDS011;59154;51.970;5.650;2023-02-21T22:50:02;13.3;;;8.2;;
70942;SDS011;59154;51.970;5.650;2023-02-21T22:55:03;12.2;;;8.2;;
70942;SDS011;59154;51.970;5.650;2023-02-21T23:00:04;10.9;;;8.5;;
70942;SDS011;59154;51.970;5.650;2023-02-21T23:05:02;13.4;;;8.5;;
70942;SDS011;59154;51.970;5.650;2023-02-21T23:10:02;11.6;;;8.8;;
70942;SDS011;59154;51.970;5.650;2023-02-21T23:15:02;12.0;;;8.7;;
70942;SDS011;59154;51.970;5.650;2023-02-21T23:20:03;13.8;;;8.6;;
70942;SDS011;59154;51.970;5.650;2023-02-21T23:25:03;12.4;;;8.3;;
70942;SDS011;59154;51.970;5.650;2023-02-21T23:30:02;12.7;;;9.3;;
70942;SDS011;59154;51.970;5.650;2023-02-21T23:35:02;14.0;;;10.2;;
70942;SDS011;59154;51.970;5.650;2023-02-21T23:40:02;12.3;;;8.9;;
70942;SDS011;59154;51.970;5.650;2023-02-21T23:45:02;12.9;;;8.7;;
70942;SDS011;59154;51.970;5.650;2023-02-21T23:50:03;13.6;;;9.3;;
70942;SDS011;59154;51.970;5.650;2023-02-21T23:55:02;13.7;;;9.4;;
